sensor_id;sensor_type;location;lat;lon;timestamp;pressure;altitude;pressure_sealevel;temperature;humidity
73633;BME280;61927;50.080;14.418;2023-02-08T00:02:08;101889.25;;;-3.09;67.91
73633;BME280;61927;50.080;14.418;2023-02-08T00:04:34;101891.75;;;-3.12;68.45
73633;BME280;61927;50.080;14.418;2023-02-08T00:06:59;101898.72;;;-3.11;68.23
73633;BME280;61927;50.080;14.418;2023-02-08T00:09:37;101893.28;;;-3.19;68.88
73633;BME280;61927;50.080;14.418;2023-02-08T00:12:02;101899.81;;;-3.30;69.92
73633;BME280;61927;50.080;14.418;2023-02-08T00:14:28;101896.28;;;-3.32;70.13
73633;BME280;61927;50.080;14.418;2023-02-08T00:16:54;101899.50;;;-3.39;70.25
73633;BME280;61927;50.080;14.418;2023-02-08T00:19:20;101899.34;;;-3.44;70.50
73633;BME280;61927;50.080;14.418;2023-02-08T00:21:45;101903.72;;;-3.43;70.24
73633;BME280;61927;50.080;14.418;2023-02-08T00:24:11;101900.34;;;-3.40;70.30
73633;BME280;61927;50.080;14.418;2023-02-08T00:26:39;101902.94;;;-3.40;70.09
73633;BME280;61927;50.080;14.418;2023-02-08T00:29:05;101901.59;;;-3.54;69.89
73633;BME280;61927;50.080;14.418;2023-02-08T00:31:30;101909.22;;;-3.59;70.00
73633;BME280;61927;50.080;14.418;2023-02-08T00:33:56;101911.31;;;-3.73;70.09
73633;BME280;61927;50.080;14.418;2023-02-08T00:36:21;101907.56;;;-3.81;70.32
73633;BME280;61927;50.080;14.418;2023-02-08T00:38:47;101904.03;;;-3.83;71.02
73633;BME280;61927;50.080;14.418;2023-02-08T00:41:12;101912.16;;;-3.74;70.87
73633;BME280;61927;50.080;14.418;2023-02-08T00:43:38;101906.19;;;-3.71;70.82
73633;BME280;61927;50.080;14.418;2023-02-08T00:46:04;101909.66;;;-3.71;71.11
73633;BME280;61927;50.080;14.418;2023-02-08T00:48:30;101912.53;;;-3.63;71.18
73633;BME280;61927;50.080;14.418;2023-02-08T00:51:07;101916.16;;;-3.58;71.12
73633;BME280;61927;50.080;14.418;2023-02-08T00:53:37;101918.16;;;-3.51;70.78
73633;BME280;61927;50.080;14.418;2023-02-08T00:56:04;101905.16;;;-3.51;70.79
73633;BME280;61927;50.080;14.418;2023-02-08T00:58:30;101907.75;;;-3.51;70.26
73633;BME280;61927;50.080;14.418;2023-02-08T01:00:55;101905.84;;;-3.56;70.59
73633;BME280;61927;50.080;14.418;2023-02-08T01:03:22;101911.81;;;-3.59;70.61
73633;BME280;61927;50.080;14.418;2023-02-08T01:05:50;101915.28;;;-3.59;70.70
73633;BME280;61927;50.080;14.418;2023-02-08T01:08:16;101911.97;;;-3.54;70.82
73633;BME280;61927;50.080;14.418;2023-02-08T01:10:44;101912.97;;;-3.51;70.60
73633;BME280;61927;50.080;14.418;2023-02-08T01:13:10;101921.72;;;-3.47;69.86
73633;BME280;61927;50.080;14.418;2023-02-08T01:15:35;101910.47;;;-3.48;70.37
73633;BME280;61927;50.080;14.418;2023-02-08T01:18:01;101909.75;;;-3.44;69.73
73633;BME280;61927;50.080;14.418;2023-02-08T01:20:28;101918.34;;;-3.45;69.83
73633;BME280;61927;50.080;14.418;2023-02-08T01:22:55;101922.63;;;-3.47;69.83
73633;BME280;61927;50.080;14.418;2023-02-08T01:25:21;101919.25;;;-3.44;69.74
73633;BME280;61927;50.080;14.418;2023-02-08T01:27:46;101933.81;;;-3.48;69.25
73633;BME280;61927;50.080;14.418;2023-02-08T01:30:12;101938.06;;;-3.50;69.32
73633;BME280;61927;50.080;14.418;2023-02-08T01:32:38;101935.31;;;-3.54;69.41
73633;BME280;61927;50.080;14.418;2023-02-08T01:35:04;101927.69;;;-3.50;69.35
73633;BME280;61927;50.080;14.418;2023-02-08T01:37:32;101918.91;;;-3.53;69.38
73633;BME280;61927;50.080;14.418;2023-02-08T01:39:58;101920.53;;;-3.57;69.07
73633;BME280;61927;50.080;14.418;2023-02-08T01:42:24;101920.31;;;-3.63;69.27
73633;BME280;61927;50.080;14.418;2023-02-08T01:47:42;101911.44;;;-3.70;70.09
73633;BME280;61927;50.080;14.418;2023-02-08T01:50:08;101910.59;;;-3.69;69.95
73633;BME280;61927;50.080;14.418;2023-02-08T01:52:35;101908.00;;;-3.69;70.20
73633;BME280;61927;50.080;14.418;2023-02-08T01:55:05;101905.56;;;-3.64;69.37
73633;BME280;61927;50.080;14.418;2023-02-08T01:57:34;101909.50;;;-3.75;69.42
73633;BME280;61927;50.080;14.418;2023-02-08T02:00:19;101906.97;;;-3.74;69.68
73633;BME280;61927;50.080;14.418;2023-02-08T02:02:47;101906.81;;;-3.78;69.48
73633;BME280;61927;50.080;14.418;2023-02-08T02:05:18;101906.59;;;-3.84;69.59
73633;BME280;61927;50.080;14.418;2023-02-08T02:07:45;101905.47;;;-3.91;69.73
73633;BME280;61927;50.080;14.418;2023-02-08T02:10:15;101905.25;;;-3.97;69.85
73633;BME280;61927;50.080;14.418;2023-02-08T02:12:43;101908.41;;;-4.06;69.70
73633;BME280;61927;50.080;14.418;2023-02-08T02:15:10;101901.16;;;-4.14;70.26
73633;BME280;61927;50.080;14.418;2023-02-08T02:17:36;101905.97;;;-4.25;70.36
73633;BME280;61927;50.080;14.418;2023-02-08T02:39:49;101907.56;;;-4.51;71.06
73633;BME280;61927;50.080;14.418;2023-02-08T02:42:36;101908.44;;;-4.50;70.91
73633;BME280;61927;50.080;14.418;2023-02-08T02:46:19;101905.28;;;-4.43;70.81
73633;BME280;61927;50.080;14.418;2023-02-08T02:48:30;101910.69;;;-4.37;70.38
73633;BME280;61927;50.080;14.418;2023-02-08T02:51:17;101913.38;;;-4.34;70.20
73633;BME280;61927;50.080;14.418;2023-02-08T02:54:16;101925.63;;;-4.30;70.10
73633;BME280;61927;50.080;14.418;2023-02-08T02:56:46;101921.16;;;-4.34;70.52
73633;BME280;61927;50.080;14.418;2023-02-08T02:59:14;101920.94;;;-4.40;70.43
73633;BME280;61927;50.080;14.418;2023-02-08T03:01:43;101921.06;;;-4.37;70.34
73633;BME280;61927;50.080;14.418;2023-02-08T03:04:16;101922.69;;;-4.39;70.58
73633;BME280;61927;50.080;14.418;2023-02-08T03:26:36;101929.53;;;-4.64;71.20
73633;BME280;61927;50.080;14.418;2023-02-08T03:31:58;101928.81;;;-4.60;70.98
73633;BME280;61927;50.080;14.418;2023-02-08T03:34:45;101935.00;;;-4.56;70.99
73633;BME280;61927;50.080;14.418;2023-02-08T03:37:19;101936.84;;;-4.53;71.07
73633;BME280;61927;50.080;14.418;2023-02-08T03:39:48;101932.53;;;-4.53;71.13
73633;BME280;61927;50.080;14.418;2023-02-08T03:42:19;101941.78;;;-4.60;70.95
73633;BME280;61927;50.080;14.418;2023-02-08T03:44:53;101945.13;;;-4.62;71.13
73633;BME280;61927;50.080;14.418;2023-02-08T03:47:30;101933.34;;;-4.54;70.76
73633;BME280;61927;50.080;14.418;2023-02-08T03:50:00;101936.78;;;-4.55;70.89
73633;BME280;61927;50.080;14.418;2023-02-08T03:52:31;101941.84;;;-4.58;70.62
73633;BME280;61927;50.080;14.418;2023-02-08T03:55:01;101947.03;;;-4.58;70.34
73633;BME280;61927;50.080;14.418;2023-02-08T03:57:33;101949.66;;;-4.57;70.45
73633;BME280;61927;50.080;14.418;2023-02-08T04:00:03;101948.13;;;-4.51;70.26
73633;BME280;61927;50.080;14.418;2023-02-08T04:02:32;101944.97;;;-4.44;69.93
73633;BME280;61927;50.080;14.418;2023-02-08T04:04:59;101952.84;;;-4.41;70.31
73633;BME280;61927;50.080;14.418;2023-02-08T04:07:26;101962.28;;;-4.43;70.36
73633;BME280;61927;50.080;14.418;2023-02-08T04:09:51;101954.28;;;-4.49;70.15
73633;BME280;61927;50.080;14.418;2023-02-08T04:12:17;101951.50;;;-4.54;70.43
73633;BME280;61927;50.080;14.418;2023-02-08T04:14:43;101950.44;;;-4.59;70.37
73633;BME280;61927;50.080;14.418;2023-02-08T04:17:08;101957.13;;;-4.64;71.04
73633;BME280;61927;50.080;14.418;2023-02-08T04:19:34;101954.50;;;-4.66;70.86
73633;BME280;61927;50.080;14.418;2023-02-08T04:22:00;101957.13;;;-4.64;70.92
73633;BME280;61927;50.080;14.418;2023-02-08T04:24:25;101958.16;;;-4.61;70.82
73633;BME280;61927;50.080;14.418;2023-02-08T04:26:51;101953.84;;;-4.60;70.73
73633;BME280;61927;50.080;14.418;2023-02-08T04:29:17;101959.59;;;-4.67;70.59
73633;BME280;61927;50.080;14.418;2023-02-08T04:31:42;101957.72;;;-4.71;70.89
73633;BME280;61927;50.080;14.418;2023-02-08T04:34:08;101959.47;;;-4.70;70.67
73633;BME280;61927;50.080;14.418;2023-02-08T04:36:34;101960.19;;;-4.74;70.70
73633;BME280;61927;50.080;14.418;2023-02-08T04:39:00;101964.47;;;-4.75;70.38
73633;BME280;61927;50.080;14.418;2023-02-08T04:41:26;101962.13;;;-4.69;70.42
73633;BME280;61927;50.080;14.418;2023-02-08T04:43:51;101956.13;;;-4.68;70.87
73633;BME280;61927;50.080;14.418;2023-02-08T04:46:17;101958.72;;;-4.68;70.40
73633;BME280;61927;50.080;14.418;2023-02-08T04:48:43;101965.66;;;-4.67;70.42
73633;BME280;61927;50.080;14.418;2023-02-08T04:51:08;101963.97;;;-4.66;69.96
73633;BME280;61927;50.080;14.418;2023-02-08T04:53:34;101970.91;;;-4.65;70.21
73633;BME280;61927;50.080;14.418;2023-02-08T04:55:59;101965.72;;;-4.65;70.35
73633;BME280;61927;50.080;14.418;2023-02-08T04:58:25;101966.50;;;-4.68;70.66
73633;BME280;61927;50.080;14.418;2023-02-08T05:00:51;101966.69;;;-4.63;70.64
73633;BME280;61927;50.080;14.418;2023-02-08T05:03:17;101974.69;;;-4.57;70.52
73633;BME280;61927;50.080;14.418;2023-02-08T05:05:43;101974.56;;;-4.60;70.11
73633;BME280;61927;50.080;14.418;2023-02-08T05:08:09;101974.56;;;-4.60;70.47
73633;BME280;61927;50.080;14.418;2023-02-08T05:10:34;101972.97;;;-4.57;70.59
73633;BME280;61927;50.080;14.418;2023-02-08T05:13:00;101971.28;;;-4.56;70.63
73633;BME280;61927;50.080;14.418;2023-02-08T05:15:26;101973.09;;;-4.53;70.58
73633;BME280;61927;50.080;14.418;2023-02-08T05:17:52;101969.75;;;-4.51;70.52
73633;BME280;61927;50.080;14.418;2023-02-08T05:20:17;101972.53;;;-4.46;70.08
73633;BME280;61927;50.080;14.418;2023-02-08T05:22:43;101966.47;;;-4.47;70.23
73633;BME280;61927;50.080;14.418;2023-02-08T05:25:09;101971.53;;;-4.50;70.22
73633;BME280;61927;50.080;14.418;2023-02-08T05:27:35;101966.22;;;-4.53;70.37
73633;BME280;61927;50.080;14.418;2023-02-08T05:30:02;101969.56;;;-4.56;70.37
73633;BME280;61927;50.080;14.418;2023-02-08T05:32:28;101961.81;;;-4.56;70.08
73633;BME280;61927;50.080;14.418;2023-02-08T05:34:53;101969.50;;;-4.57;70.01
73633;BME280;61927;50.080;14.418;2023-02-08T05:37:19;101979.00;;;-4.58;70.53
73633;BME280;61927;50.080;14.418;2023-02-08T05:39:45;101970.34;;;-4.58;70.34
73633;BME280;61927;50.080;14.418;2023-02-08T05:42:11;101984.13;;;-4.59;70.23
73633;BME280;61927;50.080;14.418;2023-02-08T05:44:37;101985.63;;;-4.64;69.73
73633;BME280;61927;50.080;14.418;2023-02-08T05:47:03;101983.56;;;-4.73;70.54
73633;BME280;61927;50.080;14.418;2023-02-08T05:49:28;101986.03;;;-4.76;70.36
73633;BME280;61927;50.080;14.418;2023-02-08T05:51:54;101979.84;;;-4.79;70.37
73633;BME280;61927;50.080;14.418;2023-02-08T05:54:20;101984.84;;;-4.84;70.88
73633;BME280;61927;50.080;14.418;2023-02-08T05:56:46;101988.31;;;-4.83;70.99
73633;BME280;61927;50.080;14.418;2023-02-08T05:59:11;101995.31;;;-4.81;70.21
73633;BME280;61927;50.080;14.418;2023-02-08T06:01:37;101997.97;;;-4.79;70.19
73633;BME280;61927;50.080;14.418;2023-02-08T06:04:03;102000.69;;;-4.76;70.13
73633;BME280;61927;50.080;14.418;2023-02-08T06:06:28;102003.34;;;-4.75;70.26
73633;BME280;61927;50.080;14.418;2023-02-08T06:08:54;102006.03;;;-4.72;69.84
73633;BME280;61927;50.080;14.418;2023-02-08T06:11:20;102006.34;;;-4.64;68.96
73633;BME280;61927;50.080;14.418;2023-02-08T06:13:46;102012.50;;;-4.62;69.09
73633;BME280;61927;50.080;14.418;2023-02-08T06:16:12;102012.31;;;-4.67;69.41
73633;BME280;61927;50.080;14.418;2023-02-08T06:18:39;102011.22;;;-4.72;69.43
73633;BME280;61927;50.080;14.418;2023-02-08T06:21:05;102021.47;;;-4.75;69.83
73633;BME280;61927;50.080;14.418;2023-02-08T06:23:31;102019.63;;;-4.77;69.86
73633;BME280;61927;50.080;14.418;2023-02-08T06:25:57;102017.94;;;-4.77;69.66
73633;BME280;61927;50.080;14.418;2023-02-08T06:28:23;102019.94;;;-4.70;69.99
73633;BME280;61927;50.080;14.418;2023-02-08T06:30:49;102016.47;;;-4.70;69.69
73633;BME280;61927;50.080;14.418;2023-02-08T06:33:15;102014.75;;;-4.70;69.12
73633;BME280;61927;50.080;14.418;2023-02-08T06:35:45;102020.84;;;-4.69;69.63
73633;BME280;61927;50.080;14.418;2023-02-08T06:38:11;102020.19;;;-4.64;69.53
73633;BME280;61927;50.080;14.418;2023-02-08T06:40:37;102026.38;;;-4.60;69.15
73633;BME280;61927;50.080;14.418;2023-02-08T06:43:02;102023.72;;;-4.62;69.27
73633;BME280;61927;50.080;14.418;2023-02-08T06:45:28;102024.69;;;-4.60;69.21
73633;BME280;61927;50.080;14.418;2023-02-08T06:47:54;102020.38;;;-4.59;69.18
73633;BME280;61927;50.080;14.418;2023-02-08T06:50:19;102018.56;;;-4.62;68.96
73633;BME280;61927;50.080;14.418;2023-02-08T06:52:45;102018.31;;;-4.68;69.27
73633;BME280;61927;50.080;14.418;2023-02-08T06:55:13;102027.78;;;-4.68;69.31
73633;BME280;61927;50.080;14.418;2023-02-08T06:57:38;102031.13;;;-4.71;69.46
73633;BME280;61927;50.080;14.418;2023-02-08T07:00:05;102025.75;;;-4.75;69.71
73633;BME280;61927;50.080;14.418;2023-02-08T07:02:31;102027.41;;;-4.77;69.80
73633;BME280;61927;50.080;14.418;2023-02-08T07:05:05;102030.25;;;-4.71;70.19
73633;BME280;61927;50.080;14.418;2023-02-08T07:07:30;102032.84;;;-4.71;69.97
73633;BME280;61927;50.080;14.418;2023-02-08T07:09:59;102037.25;;;-4.69;69.61
73633;BME280;61927;50.080;14.418;2023-02-08T07:12:25;102039.03;;;-4.68;69.93
73633;BME280;61927;50.080;14.418;2023-02-08T07:14:50;102043.44;;;-4.65;69.29
73633;BME280;61927;50.080;14.418;2023-02-08T07:17:16;102045.28;;;-4.63;69.49
73633;BME280;61927;50.080;14.418;2023-02-08T07:19:42;102048.00;;;-4.60;69.41
73633;BME280;61927;50.080;14.418;2023-02-08T07:22:07;102044.22;;;-4.68;69.19
73633;BME280;61927;50.080;14.418;2023-02-08T07:24:38;102046.22;;;-4.81;70.07
73633;BME280;61927;50.080;14.418;2023-02-08T07:27:06;102045.28;;;-4.83;69.90
73633;BME280;61927;50.080;14.418;2023-02-08T07:29:52;102056.09;;;-4.73;70.59
73633;BME280;61927;50.080;14.418;2023-02-08T07:32:18;102056.09;;;-4.73;69.76
73633;BME280;61927;50.080;14.418;2023-02-08T07:34:43;102057.09;;;-4.69;69.82
73633;BME280;61927;50.080;14.418;2023-02-08T07:37:10;102046.03;;;-4.65;69.64
73633;BME280;61927;50.080;14.418;2023-02-08T07:39:36;102055.13;;;-4.54;68.67
73633;BME280;61927;50.080;14.418;2023-02-08T07:42:02;102055.69;;;-4.61;69.49
73633;BME280;61927;50.080;14.418;2023-02-08T07:44:27;102060.75;;;-4.64;69.52
73633;BME280;61927;50.080;14.418;2023-02-08T07:46:53;102057.22;;;-4.66;69.60
73633;BME280;61927;50.080;14.418;2023-02-08T07:49:19;102067.91;;;-4.59;69.74
73633;BME280;61927;50.080;14.418;2023-02-08T07:51:45;102068.28;;;-4.49;69.53
73633;BME280;61927;50.080;14.418;2023-02-08T07:54:10;102066.88;;;-4.41;69.34
73633;BME280;61927;50.080;14.418;2023-02-08T07:56:36;102067.44;;;-4.28;68.76
73633;BME280;61927;50.080;14.418;2023-02-08T07:59:01;102069.25;;;-4.25;68.59
73633;BME280;61927;50.080;14.418;2023-02-08T08:01:27;102063.97;;;-4.28;68.42
73633;BME280;61927;50.080;14.418;2023-02-08T08:03:53;102072.44;;;-4.32;69.18
73633;BME280;61927;50.080;14.418;2023-02-08T08:06:20;102073.38;;;-4.30;69.18
73633;BME280;61927;50.080;14.418;2023-02-08T08:08:46;102075.41;;;-4.23;69.66
73633;BME280;61927;50.080;14.418;2023-02-08T08:11:16;102068.94;;;-4.12;69.01
73633;BME280;61927;50.080;14.418;2023-02-08T08:13:42;102065.75;;;-4.05;68.66
73633;BME280;61927;50.080;14.418;2023-02-08T08:16:08;102068.47;;;-4.02;69.00
73633;BME280;61927;50.080;14.418;2023-02-08T08:18:34;102065.34;;;-3.93;68.64
73633;BME280;61927;50.080;14.418;2023-02-08T08:21:01;102056.19;;;-3.83;68.56
73633;BME280;61927;50.080;14.418;2023-02-08T08:23:27;102061.88;;;-3.94;68.90
73633;BME280;61927;50.080;14.418;2023-02-08T08:25:58;102059.38;;;-3.91;68.95
73633;BME280;61927;50.080;14.418;2023-02-08T08:28:24;102051.66;;;-3.89;69.37
73633;BME280;61927;50.080;14.418;2023-02-08T08:30:49;102057.91;;;-3.84;69.64
73633;BME280;61927;50.080;14.418;2023-02-08T08:33:16;102057.44;;;-3.74;69.40
73633;BME280;61927;50.080;14.418;2023-02-08T08:35:41;102055.78;;;-3.72;68.84
73633;BME280;61927;50.080;14.418;2023-02-08T08:38:08;102059.31;;;-3.70;69.13
73633;BME280;61927;50.080;14.418;2023-02-08T08:40:34;102061.25;;;-3.64;69.04
73633;BME280;61927;50.080;14.418;2023-02-08T08:43:00;102061.38;;;-3.61;69.06
73633;BME280;61927;50.080;14.418;2023-02-08T08:45:25;102051.81;;;-3.62;68.44
73633;BME280;61927;50.080;14.418;2023-02-08T08:47:51;102050.22;;;-3.59;68.70
73633;BME280;61927;50.080;14.418;2023-02-08T08:50:17;102059.19;;;-3.50;68.58
73633;BME280;61927;50.080;14.418;2023-02-08T08:52:43;102055.16;;;-3.42;68.52
73633;BME280;61927;50.080;14.418;2023-02-08T08:55:08;102058.91;;;-3.34;68.57
73633;BME280;61927;50.080;14.418;2023-02-08T08:57:34;102054.97;;;-3.23;67.82
73633;BME280;61927;50.080;14.418;2023-02-08T09:00:00;102047.72;;;-3.08;67.55
73633;BME280;61927;50.080;14.418;2023-02-08T09:02:25;102058.34;;;-3.02;67.04
73633;BME280;61927;50.080;14.418;2023-02-08T09:04:51;102056.56;;;-3.03;66.56
73633;BME280;61927;50.080;14.418;2023-02-08T09:07:17;102053.41;;;-2.94;66.62
73633;BME280;61927;50.080;14.418;2023-02-08T09:09:42;102047.69;;;-2.84;66.62
73633;BME280;61927;50.080;14.418;2023-02-08T09:12:13;102041.03;;;-2.76;65.66
73633;BME280;61927;50.080;14.418;2023-02-08T09:14:40;102044.78;;;-2.68;66.01
73633;BME280;61927;50.080;14.418;2023-02-08T09:17:06;102047.44;;;-2.66;65.66
73633;BME280;61927;50.080;14.418;2023-02-08T09:19:32;102047.38;;;-2.68;65.69
73633;BME280;61927;50.080;14.418;2023-02-08T09:21:58;102044.94;;;-2.63;65.88
73633;BME280;61927;50.080;14.418;2023-02-08T09:24:24;102050.13;;;-2.63;65.93
73633;BME280;61927;50.080;14.418;2023-02-08T09:26:50;102052.00;;;-2.59;64.68
73633;BME280;61927;50.080;14.418;2023-02-08T09:29:16;102050.53;;;-2.51;64.07
73633;BME280;61927;50.080;14.418;2023-02-08T09:31:42;102051.03;;;-2.36;63.45
73633;BME280;61927;50.080;14.418;2023-02-08T09:34:07;102048.91;;;-2.20;63.25
73633;BME280;61927;50.080;14.418;2023-02-08T09:36:35;102044.03;;;-2.10;63.21
73633;BME280;61927;50.080;14.418;2023-02-08T09:39:14;102041.63;;;-2.04;62.36
73633;BME280;61927;50.080;14.418;2023-02-08T09:47:22;102039.25;;;-1.96;62.35
73633;BME280;61927;50.080;14.418;2023-02-08T09:50:33;102042.28;;;-1.82;62.09
73633;BME280;61927;50.080;14.418;2023-02-08T09:53:08;102033.81;;;-1.75;60.65
73633;BME280;61927;50.080;14.418;2023-02-08T09:55:41;102034.00;;;-1.69;61.72
73633;BME280;61927;50.080;14.418;2023-02-08T09:58:25;102038.59;;;-1.60;60.94
73633;BME280;61927;50.080;14.418;2023-02-08T10:00:53;102031.69;;;-1.58;60.57
73633;BME280;61927;50.080;14.418;2023-02-08T10:03:28;102030.91;;;-1.56;60.90
73633;BME280;61927;50.080;14.418;2023-02-08T10:05:55;102035.19;;;-1.58;61.21
73633;BME280;61927;50.080;14.418;2023-02-08T10:08:21;102028.38;;;-1.53;61.10
73633;BME280;61927;50.080;14.418;2023-02-08T10:10:58;102007.59;;;-1.51;60.39
73633;BME280;61927;50.080;14.418;2023-02-08T10:24:20;102002.44;;;-1.18;60.28
73633;BME280;61927;50.080;14.418;2023-02-08T10:27:13;101993.84;;;-1.14;59.69
73633;BME280;61927;50.080;14.418;2023-02-08T10:35:11;101989.31;;;-0.88;60.07
73633;BME280;61927;50.080;14.418;2023-02-08T10:37:40;101988.56;;;-0.84;59.54
73633;BME280;61927;50.080;14.418;2023-02-08T10:43:21;101983.97;;;-0.58;59.51
73633;BME280;61927;50.080;14.418;2023-02-08T10:46:04;101984.19;;;-0.49;58.75
73633;BME280;61927;50.080;14.418;2023-02-08T10:49:13;101975.66;;;-0.42;58.87
73633;BME280;61927;50.080;14.418;2023-02-08T10:51:40;101973.13;;;-0.39;59.12
73633;BME280;61927;50.080;14.418;2023-02-08T10:54:10;101984.34;;;-0.43;58.97
73633;BME280;61927;50.080;14.418;2023-02-08T10:56:59;101972.25;;;-0.40;59.46
73633;BME280;61927;50.080;14.418;2023-02-08T10:59:45;101971.53;;;-0.32;59.24
73633;BME280;61927;50.080;14.418;2023-02-08T11:02:24;101966.41;;;-0.29;58.43
73633;BME280;61927;50.080;14.418;2023-02-08T11:07:35;101970.13;;;-0.18;58.70
73633;BME280;61927;50.080;14.418;2023-02-08T11:15:53;101955.34;;;-0.18;59.33
73633;BME280;61927;50.080;14.418;2023-02-08T11:18:38;101945.91;;;-0.13;59.58
73633;BME280;61927;50.080;14.418;2023-02-08T11:21:07;101942.53;;;-0.07;57.87
73633;BME280;61927;50.080;14.418;2023-02-08T11:23:39;101949.75;;;0.05;58.67
73633;BME280;61927;50.080;14.418;2023-02-08T11:26:32;101948.28;;;0.19;58.00
73633;BME280;61927;50.080;14.418;2023-02-08T11:29:17;101942.59;;;0.38;58.36
73633;BME280;61927;50.080;14.418;2023-02-08T11:32:14;101943.69;;;0.51;57.96
73633;BME280;61927;50.080;14.418;2023-02-08T11:34:40;101928.06;;;0.52;56.66
73633;BME280;61927;50.080;14.418;2023-02-08T11:37:24;101917.53;;;0.48;56.43
73633;BME280;61927;50.080;14.418;2023-02-08T11:39:55;101914.88;;;0.46;57.07
73633;BME280;61927;50.080;14.418;2023-02-08T11:42:24;101913.22;;;0.51;57.13
73633;BME280;61927;50.080;14.418;2023-02-08T11:44:52;101908.88;;;0.52;57.02
73633;BME280;61927;50.080;14.418;2023-02-08T11:47:24;101917.69;;;0.57;56.54
73633;BME280;61927;50.080;14.418;2023-02-08T11:49:55;101913.44;;;0.62;57.12
73633;BME280;61927;50.080;14.418;2023-02-08T11:52:39;101915.09;;;0.58;56.45
73633;BME280;61927;50.080;14.418;2023-02-08T11:55:25;101924.56;;;0.52;56.60
73633;BME280;61927;50.080;14.418;2023-02-08T12:00:31;101911.38;;;0.46;56.61
73633;BME280;61927;50.080;14.418;2023-02-08T12:03:16;101909.50;;;0.39;57.43
73633;BME280;61927;50.080;14.418;2023-02-08T12:11:39;101903.59;;;0.47;56.85
73633;BME280;61927;50.080;14.418;2023-02-08T12:22:31;101904.25;;;0.37;56.91
73633;BME280;61927;50.080;14.418;2023-02-08T12:28:19;101894.84;;;0.45;56.49
73633;BME280;61927;50.080;14.418;2023-02-08T12:33:51;101886.47;;;0.64;57.24
73633;BME280;61927;50.080;14.418;2023-02-08T12:36:36;101889.28;;;0.75;56.59
73633;BME280;61927;50.080;14.418;2023-02-08T12:42:16;101866.84;;;0.89;56.68
73633;BME280;61927;50.080;14.418;2023-02-08T12:45:08;101854.66;;;0.90;55.41
73633;BME280;61927;50.080;14.418;2023-02-08T12:48:03;101855.66;;;0.96;55.79
73633;BME280;61927;50.080;14.418;2023-02-08T12:53:36;101838.22;;;0.97;55.82
73633;BME280;61927;50.080;14.418;2023-02-08T12:56:14;101840.78;;;0.92;55.52
73633;BME280;61927;50.080;14.418;2023-02-08T12:58:46;101831.25;;;0.96;55.13
73633;BME280;61927;50.080;14.418;2023-02-08T13:01:17;101835.66;;;1.00;54.37
73633;BME280;61927;50.080;14.418;2023-02-08T13:03:52;101828.03;;;1.14;52.94
73633;BME280;61927;50.080;14.418;2023-02-08T13:06:24;101827.16;;;1.15;50.95
73633;BME280;61927;50.080;14.418;2023-02-08T13:08:58;101823.50;;;1.04;50.94
73633;BME280;61927;50.080;14.418;2023-02-08T13:11:31;101818.28;;;1.04;51.68
73633;BME280;61927;50.080;14.418;2023-02-08T13:14:11;101806.94;;;1.03;52.08
73633;BME280;61927;50.080;14.418;2023-02-08T13:16:43;101800.03;;;1.07;52.63
73633;BME280;61927;50.080;14.418;2023-02-08T13:21:42;101791.53;;;1.21;51.43
73633;BME280;61927;50.080;14.418;2023-02-08T13:24:38;101803.75;;;1.22;50.60
73633;BME280;61927;50.080;14.418;2023-02-08T13:27:05;101801.97;;;1.21;50.94
73633;BME280;61927;50.080;14.418;2023-02-08T13:29:34;101804.66;;;1.26;50.58
73633;BME280;61927;50.080;14.418;2023-02-08T13:34:36;101803.81;;;1.28;50.93
73633;BME280;61927;50.080;14.418;2023-02-08T13:37:18;101799.44;;;1.27;50.67
73633;BME280;61927;50.080;14.418;2023-02-08T13:39:45;101806.47;;;1.30;49.90
73633;BME280;61927;50.080;14.418;2023-02-08T13:42:32;101809.09;;;1.32;49.35
73633;BME280;61927;50.080;14.418;2023-02-08T13:45:00;101805.59;;;1.29;49.83
73633;BME280;61927;50.080;14.418;2023-02-08T13:47:30;101805.53;;;1.25;49.77
73633;BME280;61927;50.080;14.418;2023-02-08T13:50:00;101808.97;;;1.22;49.77
73633;BME280;61927;50.080;14.418;2023-02-08T13:58:24;101806.66;;;1.45;50.21
73633;BME280;61927;50.080;14.418;2023-02-08T14:03:21;101804.19;;;1.56;49.93
73633;BME280;61927;50.080;14.418;2023-02-08T14:05:50;101799.91;;;1.63;49.76
73633;BME280;61927;50.080;14.418;2023-02-08T14:19:22;101793.59;;;1.47;51.91
73633;BME280;61927;50.080;14.418;2023-02-08T14:22:01;101794.47;;;1.47;52.97
73633;BME280;61927;50.080;14.418;2023-02-08T14:27:36;101800.63;;;1.51;54.14
73633;BME280;61927;50.080;14.418;2023-02-08T14:30:07;101801.56;;;1.56;54.05
73633;BME280;61927;50.080;14.418;2023-02-08T14:32:46;101790.19;;;1.52;53.84
73633;BME280;61927;50.080;14.418;2023-02-08T14:35:26;101785.72;;;1.44;54.61
73633;BME280;61927;50.080;14.418;2023-02-08T14:41:00;101796.97;;;1.37;55.09
73633;BME280;61927;50.080;14.418;2023-02-08T14:45:53;101785.59;;;1.35;54.71
73633;BME280;61927;50.080;14.418;2023-02-08T14:48:30;101787.44;;;1.42;55.08
73633;BME280;61927;50.080;14.418;2023-02-08T14:56:25;101778.59;;;1.34;55.06
73633;BME280;61927;50.080;14.418;2023-02-08T14:58:56;101778.56;;;1.31;54.35
73633;BME280;61927;50.080;14.418;2023-02-08T15:03:54;101769.81;;;1.27;54.61
73633;BME280;61927;50.080;14.418;2023-02-08T15:09:04;101763.63;;;1.20;54.98
73633;BME280;61927;50.080;14.418;2023-02-08T15:11:32;101765.41;;;1.24;55.32
73633;BME280;61927;50.080;14.418;2023-02-08T15:14:00;101771.50;;;1.23;55.02
73633;BME280;61927;50.080;14.418;2023-02-08T15:16:35;101766.22;;;1.19;55.32
73633;BME280;61927;50.080;14.418;2023-02-08T15:19:06;101763.56;;;1.17;54.97
73633;BME280;61927;50.080;14.418;2023-02-08T15:21:33;101756.63;;;1.19;55.24
73633;BME280;61927;50.080;14.418;2023-02-08T15:24:12;101759.28;;;1.22;55.66
73633;BME280;61927;50.080;14.418;2023-02-08T15:27:15;101767.19;;;1.27;54.38
73633;BME280;61927;50.080;14.418;2023-02-08T15:29:43;101763.69;;;1.26;52.11